Imperial, NE

2:55 PM MDT on May 05, 2015 (GMT -0600)
Imperial Municipal | | Change Station
CLOSE
Current Station
Airport
Location: Imperial,
Elevation: 3274 ft
Nearby Weather Stations

Elev 3274 ft 40.51 °N, 101.62 °W | Updated 24 minutes ago

Light Rain
Light Rain
59 °F
Feels Like 59 °F
N
14
Wind Variable Wind from SE

Today
High -- | Low -- °F
--% Chance of Precip.
Yesterday
High -- | Low -- °F
Precip. -- in
5:40 AM 7:46 PM
Full, 97% visible
Pressure 29.92 in
Visibility 10.0 miles
Clouds Few 900 ft
Mostly Cloudy 7000 ft
Overcast 8000 ft
Dew Point 56 °F
Humidity 90%
Rainfall 0.11 in
Snow Depth Not available.
UV 3 out of 12
Pollen 4.90 out of 12
Air Quality Not available.
Flu Activity Local Activity
SPECI KIML 052031Z AUTO 13012KT 10SM -RA FEW009 BKN070 OVC080 15/13 A2992 RMK AO2 P0007 T01500133

More Conditions Fewer Conditions

Pressure 29.92 in
Visibility 10.0 miles
Clouds Few 900 ft
Mostly Cloudy 7000 ft
Overcast 8000 ft
Dew Point 56 °F
Humidity 90%
Rainfall 0.11 in
Snow Depth Not available.
UV 3 out of 12
Pollen 4.90 out of 12
Air Quality Not available.
Flu Activity Local Activity
SPECI KIML 052031Z AUTO 13012KT 10SM -RA FEW009 BKN070 OVC080 15/13 A2992 RMK AO2 P0007 T01500133

More Conditions Fewer Conditions

Nowcast | as of 2:24 PM CDT on May 5, 2015

At 215 PM CDT Doppler radar indicated a line of scattered showers extending from just north of Ogallala...to Tryon...to Brown Lake...to Brewster...to just south of Ainsworth...moving north at approximately 35 mph. A tenth of an inch to as much as a quarter of an inch is possible with this line of showers.

×

10-Day Weather Forecast

Almanac

Astronomy

May. 05, 2015 Rise Set
Actual Time
Civil Twilight
Nautical Twilight
Astronomical Twilight
Moon
Length of Visible Light
Length of Day
Tomorrow will be .
, % of the Moon is Illuminated

Today's Extremes

State Highs State Lows

Community

WunderPhotos

Upload Photos

1,818,975 photos uploaded!

WunderBlogs® & News

Nearby

Air Quality

  Air Quality AQ Index Pollutant
Not available.

Snow Depth

Station Depth Elevation

Earthquake Activity

City Distance Mag. Time & Date
Minimum magnitude displayed is 2.5.

Coastal Water Temperatures

Place Temperature

Stations

Nearby Weather Stations

Station Location Temp. Windchill Dew Point Humidity Wind Precip. Elev Updated Type